HESC

St Catherine International Airport

Egypt
METAR HESC 170700Z 02003KT CAVOK 13/M03 Q1026 NOSIG
Observed Flight Rules
Dec-17 @ 07:00 UTC (an hour ago) Visual Flight Rules
Wind Visibility Clouds
20° at 3 knots 10,000+ meters
  • Clear skies
Temperatures Readings
Current 13°C / 55°F
Dewpoint -3°C / 27°F
Humidity 33%
Altimeter 30.3" Hg
Pressure 1026 hPa
Elevation 1332
METAR HESC 170700Z 02003KT CAVOK 13/M03 Q1026 NOSIG
Observed Flight Rules
Dec-17 @ 07:00 UTC
(an hour ago)
VFR
Wind Visibility
20° at 3 knots 10,000+ meters
Clouds
  • Clear skies
Temperature Dewpoint
13°C / 55°F -3°C / 27°F
Humidity Altimeter Pressure
33% 30.3" Hg 1026 hPa